Time;durP1;ratioP1;P1;durP2;ratioP2;P2;SDS_P1;SDS_P2;PMS_P1;PMS_P2;Temp;Humidity;BMP_temperature;BMP_pressure;BME280_temperature;BME280_humidity;BME280_pressure;Samples;Min_cycle;Max_cycle;Signal;HPM_P1;HPM_P2
2023/01/11 00:00:20;;;;;;;24.70;16.08;;;9.10;99.90;;;;;;4974610;28;20046;-81
2023/01/11 00:02:47;;;;;;;21.63;14.93;;;9.10;99.90;;;;;;4974927;28;20057;-81
2023/01/11 00:05:13;;;;;;;23.50;15.65;;;9.10;99.90;;;;;;4946861;28;20768;-81
2023/01/11 00:07:39;;;;;;;23.55;16.10;;;9.20;99.90;;;;;;4963900;28;20057;-80
2023/01/11 00:10:09;;;;;;;22.02;16.08;;;9.20;99.90;;;;;;4986158;28;20049;-79
2023/01/11 00:12:34;;;;;;;22.42;15.50;;;9.20;99.90;;;;;;4945063;28;20051;-81
2023/01/11 00:15:00;;;;;;;20.05;15.18;;;9.20;99.90;;;;;;4929895;28;21073;-81
2023/01/11 00:17:28;;;;;;;21.95;15.48;;;9.20;99.90;;;;;;4941859;28;20041;-81
2023/01/11 00:19:53;;;;;;;23.55;15.45;;;9.20;99.90;;;;;;4963951;28;20050;-81
2023/01/11 00:22:19;;;;;;;20.42;15.25;;;9.20;99.90;;;;;;4964543;28;20444;-80
2023/01/11 00:24:45;;;;;;;22.90;15.68;;;9.20;99.90;;;;;;4961639;28;20138;-81
2023/01/11 00:27:10;;;;;;;19.17;13.85;;;8.30;99.90;;;;;;4975986;28;20050;-80
2023/01/11 00:29:36;;;;;;;21.52;13.63;;;9.30;99.90;;;;;;4979817;28;20054;-81
2023/01/11 00:32:02;;;;;;;21.20;13.13;;;9.30;99.90;;;;;;4931497;28;20047;-81
2023/01/11 00:34:27;;;;;;;19.92;13.10;;;9.30;99.90;;;;;;4960328;28;20076;-81
2023/01/11 00:36:53;;;;;;;18.10;12.48;;;9.40;99.90;;;;;;4977982;28;20112;-81
2023/01/11 00:39:19;;;;;;;20.45;12.38;;;9.40;99.90;;;;;;4961524;28;20400;-81
2023/01/11 00:49:59;;;;;;;19.10;9.93;;;9.60;99.90;;;;;;4978278;28;20484;-81
2023/01/11 00:52:25;;;;;;;14.60;7.75;;;9.60;99.90;;;;;;4962636;28;20130;-80
2023/01/11 00:54:50;;;;;;;17.30;6.60;;;9.60;99.90;;;;;;4962312;28;20145;-80
2023/01/11 00:57:16;;;;;;;17.95;7.03;;;9.70;99.90;;;;;;4946164;28;20047;-80
2023/01/11 00:59:42;;;;;;;11.60;5.65;;;9.80;99.90;;;;;;4979570;28;20046;-81
2023/01/11 01:02:09;;;;;;;15.18;5.57;;;9.90;99.90;;;;;;4962997;28;20464;-80
2023/01/11 01:04:35;;;;;;;20.73;6.10;;;9.90;99.90;;;;;;4947369;28;20083;-81
2023/01/11 01:07:01;;;;;;;23.40;5.90;;;10.00;99.90;;;;;;4944441;28;20038;-81
2023/01/11 01:09:27;;;;;;;18.38;5.30;;;10.00;99.90;;;;;;4960979;28;20076;-80
2023/01/11 01:11:53;;;;;;;19.33;5.00;;;10.10;99.90;;;;;;4962104;28;20046;-80
2023/01/11 01:14:25;;;;;;;17.88;4.88;;;10.10;99.90;;;;;;4962487;28;20612;-80
2023/01/11 01:16:52;;;;;;;16.95;4.90;;;10.10;99.90;;;;;;4978537;28;20140;-81
2023/01/11 01:19:18;;;;;;;20.77;4.63;;;10.10;99.90;;;;;;4961271;28;20139;-81
2023/01/11 01:21:44;;;;;;;18.38;4.38;;;10.10;99.90;;;;;;4975858;28;20051;-80
2023/01/11 01:24:10;;;;;;;13.35;4.22;;;10.10;99.90;;;;;;4953708;28;20046;-81
2023/01/11 01:26:36;;;;;;;17.65;4.40;;;10.10;99.90;;;;;;4975145;28;20609;-81
2023/01/11 01:29:01;;;;;;;15.55;4.30;;;10.10;99.90;;;;;;4957384;28;20279;-80
2023/01/11 01:31:27;;;;;;;14.80;4.20;;;10.10;99.90;;;;;;4992347;28;20594;-81
2023/01/11 01:33:53;;;;;;;18.67;4.50;;;10.10;99.90;;;;;;4961855;28;20085;-80
2023/01/11 01:36:19;;;;;;;21.27;4.28;;;10.10;99.90;;;;;;4972240;28;20042;-80
2023/01/11 01:38:45;;;;;;;18.02;4.03;;;10.10;99.90;;;;;;4930007;28;20038;-78
2023/01/11 01:41:12;;;;;;;22.63;4.00;;;10.20;99.90;;;;;;4956919;28;20054;-80
2023/01/11 01:43:46;;;;;;;21.30;4.75;;;10.10;99.90;;;;;;4977824;28;20050;-78
2023/01/11 01:46:11;;;;;;;23.85;4.78;;;10.20;99.90;;;;;;4961511;28;20065;-81
2023/01/11 01:48:40;;;;;;;24.35;5.00;;;10.20;99.90;;;;;;4946209;28;20042;-81
2023/01/11 01:51:09;;;;;;;24.77;4.38;;;10.20;99.90;;;;;;4960247;28;20058;-82
2023/01/11 01:53:39;;;;;;;24.10;4.65;;;10.30;99.90;;;;;;4979488;28;20051;-81
2023/01/11 01:56:09;;;;;;;20.48;4.03;;;10.20;99.90;;;;;;4976915;28;20488;-81
2023/01/11 01:58:42;;;;;;;19.33;4.40;;;10.20;99.90;;;;;;4970209;28;20050;-80
2023/01/11 02:03:53;;;;;;;20.38;4.57;;;10.20;99.90;;;;;;4981818;28;20063;-81
2023/01/11 02:06:21;;;;;;;23.80;4.30;;;10.20;99.90;;;;;;4983332;28;20079;-80
2023/01/11 02:08:52;;;;;;;20.80;4.40;;;10.20;99.90;;;;;;4960464;28;20707;-81
2023/01/11 02:11:30;;;;;;;22.27;4.45;;;10.10;99.90;;;;;;4979661;28;20054;-81
2023/01/11 02:13:58;;;;;;;24.15;4.45;;;10.20;99.90;;;;;;4975552;28;20050;-82
2023/01/11 02:16:24;;;;;;;20.30;4.20;;;10.10;99.90;;;;;;4977056;28;20129;-82
2023/01/11 02:18:50;;;;;;;19.23;3.88;;;10.10;99.90;;;;;;4977829;28;20038;-81
2023/01/11 02:21:24;;;;;;;24.05;4.28;;;10.10;99.90;;;;;;4977587;28;20050;-80
2023/01/11 02:24:14;;;;;;;20.60;4.05;;;10.10;99.90;;;;;;4977826;28;20492;-81
2023/01/11 02:26:46;;;;;;;28.33;4.95;;;10.10;99.90;;;;;;4972053;28;20074;-81
2023/01/11 02:29:23;;;;;;;25.45;4.75;;;10.10;99.90;;;;;;4972336;28;20394;-80
2023/01/11 02:32:22;;;;;;;21.05;4.65;;;10.10;99.90;;;;;;4960706;28;20054;-81
2023/01/11 02:35:35;;;;;;;26.10;5.32;;;10.10;99.90;;;;;;4959659;28;20120;-80
2023/01/11 02:38:08;;;;;;;28.35;5.07;;;10.10;99.90;;;;;;4909066;29;20099;-80
2023/01/11 02:40:57;;;;;;;30.23;4.95;;;10.10;99.90;;;;;;4887181;29;20055;-80
2023/01/11 02:46:31;;;;;;;;;;;10.10;99.90;;;;;;4974229;28;20058;-81
2023/01/11 02:49:14;;;;;;;33.28;5.72;;;10.10;99.90;;;;;;4961392;28;19926;-80
2023/01/11 02:51:53;;;;;;;32.03;6.22;;;10.10;99.90;;;;;;4957406;28;20058;-81
2023/01/11 02:54:21;;;;;;;31.83;5.97;;;10.00;99.90;;;;;;4959373;28;20103;-82
2023/01/11 02:56:51;;;;;;;32.03;5.45;;;10.00;99.90;;;;;;4976689;28;20050;-81
2023/01/11 02:59:21;;;;;;;28.55;5.57;;;10.00;99.90;;;;;;4978043;28;20523;-81
2023/01/11 03:01:50;;;;;;;29.75;5.20;;;9.90;99.90;;;;;;4975861;28;20057;-80
2023/01/11 03:04:24;;;;;;;40.83;6.75;;;9.90;99.90;;;;;;4975377;28;20054;-81
2023/01/11 03:07:00;;;;;;;32.53;6.75;;;9.90;99.90;;;;;;4962865;28;20045;-81
2023/01/11 03:09:43;;;;;;;36.80;6.00;;;9.90;99.90;;;;;;4960933;28;20127;-80
2023/01/11 03:15:15;;;;;;;30.63;5.45;;;9.90;99.90;;;;;;4975487;28;20050;-81
2023/01/11 03:18:02;;;;;;;36.08;6.10;;;9.80;99.90;;;;;;4977594;28;20050;-81
2023/01/11 03:20:30;;;;;;;;;;;9.80;99.90;;;;;;4978033;28;20146;-82
2023/01/11 03:23:22;;;;;;;45.22;6.15;;;9.70;99.90;;;;;;4960972;28;20008;-80
2023/01/11 03:26:01;;;;;;;32.15;5.50;;;9.80;99.90;;;;;;4955413;28;20062;-81
2023/01/11 03:28:34;;;;;;;31.45;5.50;;;9.70;99.90;;;;;;4965102;28;20038;-80
2023/01/11 03:31:15;;;;;;;35.65;5.65;;;9.80;99.90;;;;;;4958821;28;20049;-80
2023/01/11 03:34:09;;;;;;;28.67;5.90;;;9.80;99.90;;;;;;4958694;28;20420;-80
2023/01/11 03:36:48;;;;;;;37.08;6.55;;;9.80;99.90;;;;;;4960433;28;20618;-80
2023/01/11 03:39:29;;;;;;;27.65;5.32;;;9.90;99.90;;;;;;4959055;28;20123;-80
2023/01/11 03:41:58;;;;;;;40.30;5.68;;;9.80;99.90;;;;;;4980654;28;20211;-80
2023/01/11 03:44:27;;;;;;;30.42;6.45;;;9.80;99.90;;;;;;4962023;28;20047;-80
2023/01/11 03:47:02;;;;;;;37.13;5.90;;;9.80;99.90;;;;;;4962262;28;20576;-80
2023/01/11 03:49:47;;;;;;;31.40;5.20;;;9.70;99.90;;;;;;4981937;28;20100;-80
2023/01/11 03:52:15;;;;;;;28.40;5.65;;;9.70;99.90;;;;;;4957430;28;20064;-80
2023/01/11 03:54:42;;;;;;;23.55;4.78;;;9.70;99.90;;;;;;4980544;28;20061;-80
2023/01/11 03:57:26;;;;;;;27.35;4.97;;;9.60;99.90;;;;;;4973473;28;20848;-80
2023/01/11 03:59:52;;;;;;;27.05;4.70;;;9.60;99.90;;;;;;4964596;28;20522;-79
2023/01/11 04:02:33;;;;;;;22.60;4.03;;;9.60;99.90;;;;;;4949558;28;20082;-80
2023/01/11 04:04:59;;;;;;;27.08;4.47;;;9.60;99.90;;;;;;4964539;28;20140;-80
2023/01/11 04:07:24;;;;;;;24.13;4.97;;;9.60;99.90;;;;;;4981074;28;20521;-80
2023/01/11 04:09:50;;;;;;;27.58;4.25;;;9.60;99.90;;;;;;4947489;28;20046;-81
2023/01/11 04:12:16;;;;;;;22.85;4.57;;;9.60;99.90;;;;;;4950030;28;20551;-80
2023/01/11 04:14:41;;;;;;;25.92;5.35;;;9.60;99.90;;;;;;4950185;28;20535;-81
2023/01/11 04:17:07;;;;;;;30.45;4.85;;;9.60;99.90;;;;;;4988205;28;20077;-81
2023/01/11 04:19:33;;;;;;;25.30;5.22;;;9.60;99.90;;;;;;4993905;28;20080;-81
2023/01/11 04:21:59;;;;;;;27.38;5.10;;;9.40;99.90;;;;;;4978810;28;20057;-81
2023/01/11 04:24:24;;;;;;;25.92;4.78;;;9.60;99.90;;;;;;4963014;28;20501;-82
2023/01/11 04:26:50;;;;;;;28.23;4.90;;;9.60;99.90;;;;;;4964427;28;20042;-81
2023/01/11 04:29:16;;;;;;;27.10;4.22;;;9.60;99.90;;;;;;4976860;28;20053;-82
2023/01/11 04:31:42;;;;;;;30.08;4.38;;;9.60;99.90;;;;;;4973723;28;20480;-81
2023/01/11 04:34:08;;;;;;;23.33;4.45;;;9.50;99.90;;;;;;4957717;28;20833;-81
2023/01/11 04:36:33;;;;;;;22.30;4.50;;;9.40;99.90;;;;;;4976361;28;20082;-81
2023/01/11 04:38:59;;;;;;;27.05;4.63;;;9.50;99.90;;;;;;4976471;28;20041;-81
2023/01/11 04:44:09;;;;;;;20.23;3.88;;;9.40;99.90;;;;;;4964506;28;20097;-81
2023/01/11 04:46:35;;;;;;;19.90;3.70;;;9.30;99.90;;;;;;4956671;28;20168;-82
2023/01/11 04:49:01;;;;;;;22.10;3.20;;;9.20;99.90;;;;;;4960960;28;20035;-81
2023/01/11 04:51:27;;;;;;;14.65;2.53;;;9.20;99.90;;;;;;4962153;28;20149;-81
2023/01/11 04:53:53;;;;;;;18.45;2.50;;;9.20;99.90;;;;;;4977215;28;20050;-81
2023/01/11 04:56:18;;;;;;;9.45;2.42;;;9.10;99.90;;;;;;4962683;28;20502;-81
2023/01/11 04:58:44;;;;;;;15.45;2.58;;;9.10;99.90;;;;;;4954787;28;20042;-82
2023/01/11 05:01:14;;;;;;;16.65;3.00;;;9.00;99.90;;;;;;4975495;28;20045;-82
2023/01/11 05:03:39;;;;;;;14.38;2.90;;;9.00;99.90;;;;;;4959473;28;20085;-81
2023/01/11 05:06:06;;;;;;;11.35;2.08;;;8.90;99.90;;;;;;4956995;28;20142;-81
2023/01/11 05:08:32;;;;;;;13.05;2.53;;;8.90;99.90;;;;;;4957422;28;20589;-82
2023/01/11 05:11:00;;;;;;;20.90;2.90;;;8.80;99.90;;;;;;4975192;28;20053;-82
2023/01/11 05:13:42;;;;;;;24.17;3.45;;;8.50;99.90;;;;;;4974609;28;20124;-81
2023/01/11 05:16:13;;;;;;;19.92;3.95;;;8.80;99.90;;;;;;4961480;28;20575;-81
2023/01/11 05:18:41;;;;;;;31.17;4.82;;;8.80;99.90;;;;;;4977463;28;20046;-82
2023/01/11 05:21:07;;;;;;;37.35;5.60;;;8.90;99.90;;;;;;4956247;28;20054;-82
2023/01/11 05:23:35;;;;;;;32.80;5.70;;;8.90;99.90;;;;;;4977355;28;20081;-82
2023/01/11 05:26:03;;;;;;;35.05;5.50;;;9.00;99.90;;;;;;4978575;28;20046;-82
2023/01/11 05:28:28;;;;;;;32.95;5.10;;;9.00;99.90;;;;;;4961510;28;20058;-82
2023/01/11 05:30:54;;;;;;;29.30;6.00;;;9.00;99.90;;;;;;4962062;28;20104;-82
2023/01/11 05:33:20;;;;;;;26.00;4.72;;;9.10;99.90;;;;;;4980164;28;20066;-81
2023/01/11 05:35:45;;;;;;;25.65;4.22;;;9.10;99.90;;;;;;4956133;28;20046;-81
2023/01/11 05:38:11;;;;;;;22.23;4.70;;;9.10;99.90;;;;;;4974991;28;20152;-82
2023/01/11 05:40:37;;;;;;;27.08;5.22;;;9.10;99.90;;;;;;4955943;28;20155;-82
2023/01/11 05:43:03;;;;;;;24.88;4.70;;;9.10;99.90;;;;;;4961995;28;20046;-82
2023/01/11 05:45:30;;;;;;;21.60;3.70;;;9.10;99.90;;;;;;4976914;28;20054;-82
2023/01/11 05:47:57;;;;;;;18.80;3.40;;;9.10;99.90;;;;;;4945535;28;20069;-81
2023/01/11 05:50:24;;;;;;;20.38;3.42;;;9.10;99.90;;;;;;4976465;28;20043;-82
2023/01/11 05:52:49;;;;;;;18.98;3.58;;;9.10;99.90;;;;;;4976466;28;20061;-82
2023/01/11 05:55:15;;;;;;;24.17;4.18;;;8.20;99.90;;;;;;4960218;28;20057;-82
2023/01/11 05:57:42;;;;;;;16.08;2.50;;;9.10;99.90;;;;;;4945864;28;20046;-82
2023/01/11 06:00:10;;;;;;;15.38;2.72;;;9.10;99.90;;;;;;4977863;28;20042;-82
2023/01/11 06:02:36;;;;;;;11.93;2.45;;;9.00;99.90;;;;;;4975403;28;20532;-81
2023/01/11 06:05:02;;;;;;;14.32;2.38;;;9.00;99.90;;;;;;4960660;28;20480;-81
2023/01/11 06:07:28;;;;;;;10.90;2.83;;;9.00;99.90;;;;;;4975950;28;20054;-82
2023/01/11 06:09:54;;;;;;;17.95;3.00;;;8.90;99.90;;;;;;4962823;28;20046;-82
2023/01/11 06:12:19;;;;;;;16.65;2.80;;;8.90;99.90;;;;;;4944905;28;20468;-80
2023/01/11 06:14:45;;;;;;;18.95;3.13;;;8.90;99.90;;;;;;4963324;28;20042;-81
2023/01/11 06:17:11;;;;;;;18.35;3.25;;;8.90;99.90;;;;;;4949044;28;20125;-81
2023/01/11 06:19:37;;;;;;;19.92;3.25;;;8.90;99.90;;;;;;4961590;28;20439;-81
2023/01/11 06:22:02;;;;;;;21.05;3.10;;;8.80;99.90;;;;;;4954173;28;20061;-82
2023/01/11 06:24:28;;;;;;;17.83;3.50;;;8.90;99.90;;;;;;4959253;28;20132;-82
2023/01/11 06:26:54;;;;;;;19.63;3.38;;;8.90;99.90;;;;;;4952654;28;20047;-81
2023/01/11 06:29:20;;;;;;;14.98;2.67;;;8.90;99.90;;;;;;4947137;28;20050;-82
2023/01/11 06:31:46;;;;;;;13.70;2.88;;;8.90;99.90;;;;;;4981346;28;20050;-83
2023/01/11 06:34:11;;;;;;;16.48;2.33;;;8.90;99.90;;;;;;4975758;28;20099;-81
2023/01/11 06:36:38;;;;;;;14.05;2.60;;;8.90;99.90;;;;;;4966061;28;20050;-81
2023/01/11 06:39:04;;;;;;;14.98;2.53;;;8.90;99.90;;;;;;4952623;28;20069;-82
2023/01/11 06:41:30;;;;;;;13.95;2.40;;;8.90;99.90;;;;;;4977742;28;20046;-80
2023/01/11 06:43:55;;;;;;;13.15;2.53;;;8.90;99.90;;;;;;4955186;28;20062;-81
2023/01/11 06:46:21;;;;;;;14.13;2.17;;;8.80;99.90;;;;;;4987930;28;20047;-83
2023/01/11 06:48:47;;;;;;;16.63;2.53;;;8.80;99.90;;;;;;4974358;28;20097;-82
2023/01/11 06:51:14;;;;;;;16.88;2.38;;;8.80;99.90;;;;;;4958883;28;20058;-81
2023/01/11 06:53:41;;;;;;;17.48;2.10;;;8.80;99.90;;;;;;4961812;28;20173;-81
2023/01/11 06:56:12;;;;;;;12.98;2.17;;;8.80;99.90;;;;;;4958460;28;20049;-82
2023/01/11 06:58:38;;;;;;;9.38;2.40;;;8.80;99.90;;;;;;4977208;28;20046;-83
2023/01/11 07:01:04;;;;;;;12.88;2.10;;;8.80;99.90;;;;;;4949090;28;20089;-82
2023/01/11 07:03:30;;;;;;;11.15;2.00;;;8.80;99.90;;;;;;4979918;28;20133;-85
2023/01/11 07:05:56;;;;;;;14.07;2.70;;;8.80;99.90;;;;;;4956070;28;20058;-87
2023/01/11 07:08:25;;;;;;;10.70;1.92;;;8.80;99.90;;;;;;4972888;28;20101;-84
2023/01/11 07:10:52;;;;;;;15.32;2.75;;;8.80;99.90;;;;;;4988816;28;20038;-85
2023/01/11 07:13:21;;;;;;;14.88;1.95;;;8.80;99.90;;;;;;4933797;28;20129;-86
2023/01/11 07:15:49;;;;;;;10.20;2.20;;;8.80;99.90;;;;;;4983454;28;20050;-85
2023/01/11 07:18:16;;;;;;;11.05;1.98;;;8.80;99.90;;;;;;4967710;28;20516;-85
2023/01/11 07:20:42;;;;;;;15.40;2.45;;;8.70;99.90;;;;;;4985700;28;20062;-83
2023/01/11 07:23:09;;;;;;;12.70;2.22;;;8.90;99.90;;;;;;4968165;28;20043;-85
2023/01/11 07:25:35;;;;;;;10.85;2.05;;;8.80;99.90;;;;;;4968697;28;20058;-82
2023/01/11 07:28:06;;;;;;;12.60;2.20;;;8.70;99.90;;;;;;4988181;28;20129;-82
2023/01/11 07:30:34;;;;;;;14.77;3.13;;;8.80;99.90;;;;;;4968494;28;20491;-82
2023/01/11 07:33:00;;;;;;;12.07;2.78;;;8.60;99.90;;;;;;4986891;28;20077;-81
2023/01/11 07:35:27;;;;;;;14.15;1.98;;;8.60;99.90;;;;;;4979749;28;20500;-83
2023/01/11 07:37:52;;;;;;;9.40;1.90;;;8.50;99.90;;;;;;4987146;28;20057;-82
2023/01/11 07:40:19;;;;;;;8.90;1.92;;;8.50;99.90;;;;;;4965801;28;20054;-82
2023/01/11 07:43:10;;;;;;;17.65;2.45;;;7.20;99.90;;;;;;4955377;28;20061;-83
2023/01/11 07:45:37;;;;;;;12.45;2.22;;;8.50;99.90;;;;;;4965543;28;20104;-83
2023/01/11 07:48:05;;;;;;;12.05;2.35;;;8.40;99.90;;;;;;4974517;28;22456;-84
2023/01/11 07:50:32;;;;;;;14.00;2.97;;;8.40;99.90;;;;;;4972205;28;20048;-82
2023/01/11 07:52:58;;;;;;;13.90;2.47;;;8.40;99.90;;;;;;4965352;28;20116;-84
2023/01/11 07:55:24;;;;;;;9.07;2.03;;;8.30;99.90;;;;;;4983602;28;20496;-81
2023/01/11 07:57:50;;;;;;;15.23;2.80;;;8.30;99.90;;;;;;4949851;28;20073;-82
2023/01/11 08:00:16;;;;;;;11.10;2.50;;;8.30;99.90;;;;;;4966373;28;20109;-84
2023/01/11 08:02:42;;;;;;;10.77;2.22;;;8.30;99.90;;;;;;4981419;28;20065;-85
2023/01/11 08:05:08;;;;;;;12.02;2.90;;;8.30;99.90;;;;;;4947083;28;20054;-83
2023/01/11 08:07:34;;;;;;;13.65;2.20;;;8.30;99.90;;;;;;4949071;28;20050;-81
2023/01/11 08:10:01;;;;;;;16.08;2.22;;;8.20;99.90;;;;;;4967809;28;20049;-81
2023/01/11 08:15:13;;;;;;;7.45;1.90;;;8.20;99.90;;;;;;4988477;28;20518;-81
2023/01/11 08:17:39;;;;;;;11.93;2.50;;;8.20;99.90;;;;;;4969289;28;20074;-81
2023/01/11 08:20:04;;;;;;;11.73;2.00;;;8.20;99.90;;;;;;4963779;28;20089;-82
2023/01/11 08:22:30;;;;;;;10.15;2.33;;;8.20;99.90;;;;;;4970897;28;20611;-82
2023/01/11 08:24:56;;;;;;;13.07;2.85;;;8.20;99.90;;;;;;4972200;28;20496;-82
2023/01/11 08:27:22;;;;;;;17.10;3.15;;;8.20;99.90;;;;;;4987682;28;20068;-82
2023/01/11 08:29:47;;;;;;;11.38;1.92;;;8.10;99.90;;;;;;4972119;28;20060;-82
2023/01/11 08:32:13;;;;;;;10.02;2.10;;;8.10;99.90;;;;;;4965311;28;20050;-82
2023/01/11 08:34:39;;;;;;;14.75;2.20;;;8.10;99.90;;;;;;4971876;28;20050;-82
2023/01/11 08:37:05;;;;;;;15.95;2.40;;;8.30;99.90;;;;;;4986114;28;20038;-82
2023/01/11 08:39:32;;;;;;;10.32;2.25;;;8.10;99.90;;;;;;4940597;28;20138;-83
2023/01/11 08:41:59;;;;;;;12.65;2.40;;;8.10;99.90;;;;;;4974867;28;20129;-83
2023/01/11 08:44:25;;;;;;;15.70;2.70;;;8.10;99.90;;;;;;4989049;28;20112;-82
2023/01/11 08:46:51;;;;;;;12.93;2.40;;;8.20;99.90;;;;;;5004981;28;20052;-79
2023/01/11 08:49:17;;;;;;;12.65;2.67;;;8.20;99.90;;;;;;4977443;28;20784;-81
2023/01/11 08:51:43;;;;;;;12.50;2.35;;;8.50;99.90;;;;;;4954142;28;20141;-82
2023/01/11 08:54:13;;;;;;;8.45;2.00;;;9.10;99.90;;;;;;5002698;28;20055;-82
2023/01/11 08:56:39;;;;;;;7.40;1.90;;;9.80;99.90;;;;;;4975308;28;20054;-83
2023/01/11 08:59:04;;;;;;;9.27;2.05;;;10.40;99.90;;;;;;4968976;28;20042;-82
2023/01/11 09:01:32;;;;;;;9.63;2.45;;;10.90;99.90;;;;;;4970411;28;20392;-82
2023/01/11 09:03:58;;;;;;;8.43;1.90;;;11.30;99.90;;;;;;4981999;28;20439;-83
2023/01/11 09:06:24;;;;;;;8.20;2.13;;;11.70;99.90;;;;;;4969642;28;20816;-82
2023/01/11 09:08:50;;;;;;;7.63;1.83;;;11.90;99.90;;;;;;4952253;28;20089;-82
2023/01/11 09:14:00;;;;;;;12.38;2.15;;;12.20;99.90;;;;;;4980030;28;20089;-83
2023/01/11 09:16:26;;;;;;;13.55;2.17;;;12.10;99.90;;;;;;4964659;28;20621;-82
2023/01/11 09:18:52;;;;;;;7.88;2.20;;;11.60;99.90;;;;;;4949885;28;20463;-82
2023/01/11 09:21:18;;;;;;;9.18;2.13;;;11.10;99.90;;;;;;4943873;28;20050;-82
2023/01/11 09:23:44;;;;;;;13.50;2.20;;;10.70;99.90;;;;;;4969251;28;20554;-82
2023/01/11 09:26:13;;;;;;;12.90;2.00;;;10.30;99.90;;;;;;4968596;28;20488;-82
2023/01/11 09:28:39;;;;;;;8.43;1.98;;;10.00;99.90;;;;;;4961269;28;20120;-83
2023/01/11 09:31:06;;;;;;;11.85;2.00;;;10.20;99.90;;;;;;4985711;28;20054;-83
2023/01/11 09:33:33;;;;;;;12.50;2.40;;;10.40;99.90;;;;;;4966979;28;20077;-83
2023/01/11 09:36:01;;;;;;;9.70;2.63;;;10.40;99.90;;;;;;4982661;28;20054;-83
2023/01/11 09:38:29;;;;;;;16.48;2.90;;;10.40;99.90;;;;;;4969329;28;20392;-82
2023/01/11 09:41:16;;;;;;;15.00;2.10;;;10.30;99.90;;;;;;4968333;28;20080;-82
2023/01/11 09:43:51;;;;;;;9.80;2.33;;;10.20;99.90;;;;;;4980738;28;20054;-83
2023/01/11 09:46:19;;;;;;;14.77;2.72;;;10.20;99.90;;;;;;4969942;28;20061;-82
2023/01/11 09:48:56;;;;;;;17.20;3.78;;;10.20;99.90;;;;;;4983816;28;20050;-82
2023/01/11 09:51:32;;;;;;;12.25;2.45;;;10.10;99.90;;;;;;4968591;28;20059;-83
2023/01/11 09:54:00;;;;;;;14.80;2.60;;;10.10;99.90;;;;;;4985899;28;20090;-82
2023/01/11 09:56:36;;;;;;;16.42;3.05;;;10.10;99.90;;;;;;4968036;28;20046;-82
2023/01/11 09:59:26;;;;;;;19.30;3.10;;;10.10;99.90;;;;;;4984518;28;20415;-83
2023/01/11 10:02:40;;;;;;;15.57;3.10;;;10.20;99.90;;;;;;4985279;28;20046;-82
2023/01/11 10:05:25;;;;;;;16.90;3.28;;;10.40;99.90;;;;;;4946304;28;20287;-82
2023/01/11 10:07:53;;;;;;;14.23;3.00;;;10.50;99.90;;;;;;4999938;28;20097;-82
2023/01/11 10:10:49;;;;;;;16.02;2.72;;;10.40;99.90;;;;;;4979195;28;20065;-82
2023/01/11 10:13:53;;;;;;;17.75;3.00;;;10.50;99.90;;;;;;4969778;28;20054;-82
2023/01/11 10:16:23;;;;;;;16.67;2.80;;;10.80;99.90;;;;;;4983711;28;20148;-82
2023/01/11 10:19:05;;;;;;;14.10;2.78;;;11.00;99.90;;;;;;4959507;28;20050;-83
2023/01/11 10:21:55;;;;;;;14.13;3.03;;;11.20;99.90;;;;;;4967664;28;20054;-83
2023/01/11 10:24:26;;;;;;;15.57;2.88;;;11.10;99.90;;;;;;4968326;28;20058;-82
2023/01/11 10:26:58;;;;;;;19.80;3.90;;;10.80;99.90;;;;;;4965771;28;20664;-82
2023/01/11 10:40:16;;;;;;;18.45;3.05;;;11.60;99.90;;;;;;4898463;29;20263;-83
2023/01/11 10:43:02;;;;;;;16.15;3.30;;;12.30;99.90;;;;;;4980486;28;20050;-83
2023/01/11 10:45:53;;;;;;;15.50;3.00;;;13.10;99.90;;;;;;4974791;28;20046;-83
2023/01/11 10:48:26;;;;;;;20.40;3.13;;;13.40;99.90;;;;;;4976036;28;20385;-83
2023/01/11 10:51:10;;;;;;;18.10;3.35;;;13.30;99.90;;;;;;4966708;28;20059;-83
2023/01/11 10:53:56;;;;;;;14.80;3.33;;;13.20;99.90;;;;;;4964137;28;20136;-82
2023/01/11 10:56:44;;;;;;;23.23;3.58;;;12.60;99.90;;;;;;4974998;28;20101;-82
2023/01/11 10:59:38;;;;;;;12.32;3.25;;;12.60;99.90;;;;;;4972975;28;20050;-82
2023/01/11 11:02:36;;;;;;;20.70;4.20;;;12.30;99.90;;;;;;4997399;28;20051;-82
2023/01/11 11:05:24;;;;;;;13.45;3.85;;;11.60;99.90;;;;;;4962505;28;20058;-82
2023/01/11 11:08:16;;;;;;;13.35;3.28;;;11.30;99.90;;;;;;4978049;28;20500;-83
2023/01/11 11:11:02;;;;;;;18.35;3.53;;;10.90;99.90;;;;;;4995217;28;20051;-82
2023/01/11 11:13:47;;;;;;;;;;;10.60;99.90;;;;;;4978604;28;20058;-81
2023/01/11 11:16:22;;;;;;;16.25;3.20;;;10.50;99.90;;;;;;4968252;28;19932;-82
2023/01/11 11:18:54;;;;;;;16.73;3.42;;;10.30;99.90;;;;;;4984136;28;20101;-82
2023/01/11 11:21:30;;;;;;;18.80;3.63;;;10.40;99.90;;;;;;4982577;28;20054;-82
2023/01/11 11:24:00;;;;;;;21.75;3.47;;;10.10;99.90;;;;;;4980663;28;20050;-82
2023/01/11 11:26:43;;;;;;;19.52;3.70;;;10.00;99.90;;;;;;4984285;28;20556;-81
2023/01/11 11:29:18;;;;;;;16.60;2.70;;;8.90;99.90;;;;;;4977942;28;20054;-82
2023/01/11 11:31:45;;;;;;;19.90;3.35;;;9.80;99.90;;;;;;4997406;28;20129;-82
2023/01/11 11:34:17;;;;;;;16.52;3.72;;;9.80;99.90;;;;;;4936296;28;20050;-82
2023/01/11 11:36:49;;;;;;;16.52;3.55;;;9.70;99.90;;;;;;4982582;28;20050;-83
2023/01/11 11:39:28;;;;;;;19.58;3.28;;;9.70;99.90;;;;;;4994163;28;20043;-82
2023/01/11 11:42:02;;;;;;;24.20;4.07;;;9.70;99.90;;;;;;4983763;28;20105;-82
2023/01/11 11:44:28;;;;;;;16.45;3.45;;;9.70;99.90;;;;;;4981526;28;20396;-83
2023/01/11 11:47:15;;;;;;;16.80;3.60;;;9.70;99.90;;;;;;4964512;28;20046;-83
2023/01/11 11:49:41;;;;;;;20.08;3.30;;;9.70;99.90;;;;;;4985155;28;20446;-83
2023/01/11 11:52:12;;;;;;;17.25;3.63;;;9.70;99.90;;;;;;5001384;28;20497;-83
2023/01/11 11:54:51;;;;;;;14.20;2.80;;;9.70;99.90;;;;;;4970612;28;20590;-82
2023/01/11 11:57:24;;;;;;;21.77;3.92;;;9.60;99.90;;;;;;4986510;28;20508;-79
2023/01/11 12:00:05;;;;;;;20.00;3.58;;;9.60;99.90;;;;;;4987021;28;20129;-82
2023/01/11 12:02:33;;;;;;;17.52;3.22;;;9.60;99.90;;;;;;4971756;28;20116;-83
2023/01/11 12:05:04;;;;;;;19.73;3.88;;;9.60;99.90;;;;;;4977693;28;20189;-82
2023/01/11 12:07:35;;;;;;;18.27;3.60;;;9.60;99.90;;;;;;4963725;28;20054;-80
2023/01/11 12:10:10;;;;;;;16.98;3.17;;;9.50;99.90;;;;;;4982469;28;20081;-82
2023/01/11 12:13:23;;;;;;;20.00;4.22;;;9.50;99.90;;;;;;4978396;28;20062;-81
2023/01/11 12:15:56;;;;;;;23.38;3.53;;;9.40;99.90;;;;;;4951599;28;20081;-82
2023/01/11 12:18:40;;;;;;;22.50;3.90;;;9.40;99.90;;;;;;4970224;28;20043;-82
2023/01/11 12:21:20;;;;;;;23.67;4.07;;;9.40;99.90;;;;;;4968705;28;20066;-82
2023/01/11 12:24:07;;;;;;;26.33;4.47;;;9.30;99.90;;;;;;4977948;28;20064;-82
2023/01/11 12:26:35;;;;;;;;;;;9.10;99.90;;;;;;4980959;28;20061;-82
2023/01/11 12:29:46;;;;;;;18.38;4.40;;;9.30;99.90;;;;;;4969219;28;20023;-82
2023/01/11 12:32:21;;;;;;;26.25;4.38;;;9.30;99.90;;;;;;4928330;28;20106;-82
2023/01/11 12:35:05;;;;;;;18.95;3.97;;;9.30;99.90;;;;;;4982632;28;20094;-81
2023/01/11 12:37:47;;;;;;;22.85;4.35;;;9.20;99.90;;;;;;4966233;28;20449;-82
2023/01/11 12:40:43;;;;;;;21.35;4.05;;;9.30;99.90;;;;;;4978425;28;20077;-82
2023/01/11 12:43:37;;;;;;;23.45;3.75;;;9.30;99.90;;;;;;4986008;28;20050;-81
2023/01/11 12:46:15;;;;;;;19.55;3.47;;;9.30;99.90;;;;;;4970206;28;20397;-82
2023/01/11 12:48:59;;;;;;;20.45;3.85;;;9.30;99.90;;;;;;4986289;28;20104;-82
2023/01/11 12:51:52;;;;;;;18.05;4.05;;;9.30;99.90;;;;;;4985876;28;20089;-81
2023/01/11 12:54:36;;;;;;;26.63;5.47;;;9.20;99.90;;;;;;4994157;28;20476;-82
2023/01/11 12:57:17;;;;;;;29.35;4.55;;;9.30;99.90;;;;;;4984133;28;20077;-81
2023/01/11 13:00:13;;;;;;;18.08;5.10;;;9.30;99.90;;;;;;4978664;28;20082;-81
2023/01/11 13:03:02;;;;;;;23.23;4.40;;;9.30;99.90;;;;;;4984636;28;20125;-82
2023/01/11 13:05:51;;;;;;;23.20;3.92;;;9.20;99.90;;;;;;4985451;28;20113;-82
2023/01/11 13:08:36;;;;;;;24.70;4.45;;;9.20;99.90;;;;;;4960682;28;20144;-82
2023/01/11 13:11:08;;;;;;;22.95;3.80;;;9.10;99.90;;;;;;4970940;28;20061;-82
2023/01/11 13:13:46;;;;;;;20.30;3.42;;;9.10;99.90;;;;;;4992805;28;20046;-82
2023/01/11 13:16:26;;;;;;;26.05;4.45;;;9.10;99.90;;;;;;5001989;28;20522;-82
2023/01/11 13:19:14;;;;;;;21.85;3.67;;;9.10;99.90;;;;;;4982543;28;20050;-81
2023/01/11 13:21:52;;;;;;;21.15;4.25;;;9.10;99.90;;;;;;5005129;28;20435;-81
2023/01/11 13:24:27;;;;;;;22.65;4.35;;;9.00;99.90;;;;;;4997528;28;20066;-81
2023/01/11 13:27:06;;;;;;;20.45;4.47;;;9.00;99.90;;;;;;5016467;28;20110;-82
2023/01/11 13:29:38;;;;;;;20.58;4.05;;;9.00;99.90;;;;;;4964133;28;20057;-81
2023/01/11 13:32:11;;;;;;;22.38;4.13;;;9.10;99.90;;;;;;4981251;28;20050;-81
2023/01/11 13:35:05;;;;;;;19.90;3.70;;;9.00;99.90;;;;;;4986423;28;20089;-82
2023/01/11 13:37:46;;;;;;;24.15;4.10;;;9.00;99.90;;;;;;4984844;28;20062;-82
2023/01/11 13:40:21;;;;;;;15.43;3.70;;;9.00;99.90;;;;;;4981615;28;20061;-82
2023/01/11 13:42:51;;;;;;;23.05;3.97;;;7.90;99.90;;;;;;4984052;28;20060;-80
2023/01/11 13:45:38;;;;;;;23.05;4.20;;;8.90;99.90;;;;;;4968572;28;20107;-82